Time;durP1;ratioP1;P1;durP2;ratioP2;P2;SDS_P1;SDS_P2;PMS_P1;PMS_P2;Temp;Humidity;BMP_temperature;BMP_pressure;BME280_temperature;BME280_humidity;BME280_pressure;Samples;Min_cycle;Max_cycle;Signal;HPM_P1;HPM_P2
2022/10/02 00:02:46;;;;;;;2.53;1.33;;;;;;;21.38;48.42;101150.44;5008682;28;20037;-64
2022/10/02 00:05:33;;;;;;;4.22;1.55;;;;;;;21.34;48.60;101157.91;5000732;28;20128;-64
2022/10/02 00:08:08;;;;;;;3.40;1.65;;;;;;;21.32;48.62;101149.31;5015892;28;20044;-64
2022/10/02 00:10:50;;;;;;;3.05;1.73;;;;;;;21.33;48.70;101158.91;5019360;28;20029;-63
2022/10/02 00:13:35;;;;;;;2.75;1.40;;;;;;;21.33;48.57;101168.69;5013418;28;20056;-64
2022/10/02 00:16:08;;;;;;;2.80;1.58;;;;;;;21.27;48.67;101166.78;5015741;28;20166;-64
2022/10/02 00:18:36;;;;;;;2.47;1.88;;;;;;;21.24;48.81;101167.97;5015478;28;20033;-64
2022/10/02 00:21:14;;;;;;;3.38;1.58;;;;;;;21.31;48.83;101183.94;5014427;28;21162;-64
2022/10/02 00:23:53;;;;;;;3.58;1.98;;;;;;;21.30;48.96;101183.13;5014712;28;20390;-64
2022/10/02 00:26:30;;;;;;;2.40;1.48;;;;;;;21.26;48.84;101194.28;5014089;28;20132;-63
2022/10/02 00:29:07;;;;;;;4.45;1.90;;;;;;;21.26;48.69;101194.28;5012901;28;20128;-64
2022/10/02 00:32:12;;;;;;;2.47;1.60;;;;;;;21.29;48.60;101178.00;5012845;28;20044;-64
2022/10/02 00:35:01;;;;;;;4.72;1.70;;;;;;;21.22;48.98;101162.00;5012864;28;20128;-63
2022/10/02 00:37:43;;;;;;;1.80;1.35;;;;;;;21.22;48.83;101169.94;5013271;28;20045;-64
2022/10/02 00:40:51;;;;;;;2.53;1.42;;;;;;;21.24;48.99;101170.63;5018708;28;20041;-64
2022/10/02 00:43:22;;;;;;;2.17;1.67;;;;;;;21.19;49.03;101166.84;5011802;28;20050;-64
2022/10/02 00:46:15;;;;;;;3.10;1.38;;;;;;;21.18;49.14;101163.34;5013996;28;20110;-64
2022/10/02 00:48:43;;;;;;;2.95;1.77;;;;;;;21.19;48.98;101174.78;5013057;28;20065;-64
2022/10/02 00:51:18;;;;;;;2.67;1.50;;;;;;;21.23;48.95;101173.41;5013046;28;20037;-64
2022/10/02 00:54:07;;;;;;;2.13;1.42;;;;;;;21.20;49.12;101177.25;5009059;28;20629;-64
2022/10/02 00:56:48;;;;;;;4.90;1.80;;;;;;;21.16;49.17;101175.13;5010266;28;20087;-64
2022/10/02 00:59:19;;;;;;;4.85;1.80;;;;;;;21.13;49.04;101166.53;5010418;28;20052;-64
2022/10/02 01:01:59;;;;;;;3.45;1.85;;;;;;;21.16;48.98;101177.75;5011973;28;20056;-64
2022/10/02 01:04:34;;;;;;;2.38;1.60;;;;;;;21.19;49.12;101177.44;5016132;28;20037;-64
2022/10/02 01:07:01;;;;;;;3.80;1.88;;;;;;;21.15;49.14;101186.72;5018170;28;20025;-64
2022/10/02 01:09:26;;;;;;;3.05;1.58;;;;;;;21.19;48.92;101190.66;5014472;28;20175;-64
2022/10/02 01:11:52;;;;;;;3.92;1.52;;;;;;;21.16;49.20;101180.41;5018885;28;20124;-64
2022/10/02 01:14:18;;;;;;;4.05;1.45;;;;;;;21.14;49.00;101183.25;5014988;28;20030;-64
2022/10/02 01:16:44;;;;;;;5.60;2.20;;;;;;;21.16;49.10;101181.22;5014882;28;20041;-64
2022/10/02 01:19:36;;;;;;;3.08;1.67;;;;;;;21.15;48.83;101184.88;5018797;28;20103;-64
2022/10/02 01:22:33;;;;;;;2.67;1.65;;;;;;;21.16;48.92;101186.53;5014586;28;20034;-64
2022/10/02 01:25:03;;;;;;;3.42;1.67;;;;;;;21.12;49.03;101191.38;5015148;28;20107;-64
2022/10/02 01:27:29;;;;;;;5.10;1.83;;;;;;;21.14;48.94;101191.19;5013727;28;20031;-64
2022/10/02 01:30:17;;;;;;;3.35;1.52;;;;;;;21.11;49.06;101192.38;5025582;28;20525;-64
2022/10/02 01:32:56;;;;;;;4.03;1.75;;;;;;;21.17;49.14;101197.94;5014434;28;20490;-64
2022/10/02 01:35:26;;;;;;;3.33;1.88;;;;;;;21.11;48.98;101197.66;5012815;28;20037;-63
2022/10/02 01:37:53;;;;;;;3.53;1.65;;;;;;;21.14;48.88;101201.78;5015427;28;20046;-64
2022/10/02 01:40:45;;;;;;;3.17;1.70;;;;;;;21.10;49.02;101200.50;5014808;28;20041;-64
2022/10/02 01:43:18;;;;;;;4.85;2.00;;;;;;;21.11;49.27;101202.16;5009506;28;20453;-64
2022/10/02 01:46:21;;;;;;;2.58;1.70;;;;;;;21.13;49.12;101205.44;5011856;28;20390;-64
2022/10/02 01:49:10;;;;;;;2.65;1.58;;;;;;;21.06;49.28;101205.34;5013683;28;20045;-64
2022/10/02 01:52:19;;;;;;;2.67;1.80;;;;;;;21.11;49.22;101212.75;4997575;28;20040;-64
2022/10/02 01:54:47;;;;;;;2.63;1.88;;;;;;;21.07;49.06;101209.63;4953056;28;20464;-64
2022/10/02 01:57:31;;;;;;;2.85;1.52;;;;;;;21.04;49.04;101204.69;5013928;28;20049;-64
2022/10/02 01:59:59;;;;;;;2.97;1.73;;;;;;;21.08;48.95;101210.44;5014388;28;20033;-64
2022/10/02 02:02:52;;;;;;;1.95;1.40;;;;;;;21.07;48.94;101214.94;5014397;28;20140;-64
2022/10/02 02:05:34;;;;;;;2.70;1.63;;;;;;;21.04;49.06;101209.16;5011570;28;20037;-64
2022/10/02 02:08:17;;;;;;;2.33;1.40;;;;;;;21.07;49.00;101208.81;5012915;28;20060;-63
2022/10/02 02:11:00;;;;;;;3.70;1.42;;;;;;;21.07;49.30;101203.50;5016900;28;20048;-64
2022/10/02 02:13:28;;;;;;;3.55;1.52;;;;;;;21.07;49.16;101199.03;5012659;28;20041;-63
2022/10/02 02:16:23;;;;;;;4.55;1.83;;;;;;;21.05;49.26;101193.09;5018801;28;20033;-64
2022/10/02 02:19:20;;;;;;;3.75;2.55;;;;;;;21.03;49.31;101191.63;5017976;28;20045;-64
2022/10/02 02:21:59;;;;;;;4.35;2.00;;;;;;;21.00;49.38;101195.44;5013330;28;20041;-64
2022/10/02 02:24:28;;;;;;;3.80;1.60;;;;;;;20.98;49.12;101181.56;5014988;28;20033;-64
2022/10/02 02:26:59;;;;;;;3.63;1.55;;;;;;;20.98;49.26;101194.78;5013643;28;20483;-64
2022/10/02 02:29:29;;;;;;;3.53;1.60;;;;;;;21.01;49.21;101191.81;5018056;28;20212;-64
2022/10/02 02:31:58;;;;;;;3.95;1.58;;;;;;;20.96;49.26;101190.69;5014871;28;20095;-64
2022/10/02 02:34:32;;;;;;;3.23;1.70;;;;;;;21.01;49.14;101196.28;5017432;28;20098;-64
2022/10/02 02:37:08;;;;;;;3.78;1.40;;;;;;;21.03;49.21;101200.41;5014312;28;20483;-64
2022/10/02 02:39:44;;;;;;;3.83;1.55;;;;;;;21.02;49.01;101196.09;5017876;28;20107;-64
2022/10/02 02:42:13;;;;;;;3.20;2.03;;;;;;;21.00;49.45;101200.72;5015519;28;20033;-64
2022/10/02 02:44:47;;;;;;;3.40;1.90;;;;;;;21.06;49.17;101202.69;5011721;28;20705;-63
2022/10/02 02:47:22;;;;;;;3.08;1.60;;;;;;;20.99;49.04;101195.63;5015659;28;20477;-64
2022/10/02 02:49:56;;;;;;;2.17;1.63;;;;;;;21.01;49.22;101207.72;5013853;28;20728;-64
2022/10/02 02:52:40;;;;;;;3.55;1.88;;;;;;;21.00;49.02;101208.69;5016864;28;20041;-63
2022/10/02 02:55:14;;;;;;;4.30;1.70;;;;;;;20.96;49.20;101199.44;5016917;28;20084;-64
2022/10/02 02:57:46;;;;;;;3.75;1.70;;;;;;;20.98;49.14;101208.03;5016914;28;20085;-64
2022/10/02 03:00:15;;;;;;;4.07;1.90;;;;;;;20.91;49.13;101204.47;5015426;28;20108;-64
2022/10/02 03:02:40;;;;;;;3.60;1.70;;;;;;;20.99;49.10;101211.50;5017479;28;20037;-64
2022/10/02 03:05:14;;;;;;;4.63;1.55;;;;;;;20.95;49.36;101213.69;5010802;28;20784;-64
2022/10/02 03:07:52;;;;;;;2.40;1.63;;;;;;;20.99;49.31;101216.81;5014051;28;20068;-64
2022/10/02 03:10:43;;;;;;;4.40;2.05;;;;;;;20.97;49.37;101214.34;5014376;28;20777;-64
2022/10/02 03:13:46;;;;;;;3.05;1.77;;;;;;;20.95;49.23;101221.63;4995116;28;20068;-64
2022/10/02 03:16:39;;;;;;;1.98;1.40;;;;;;;20.97;49.41;101227.56;4993912;28;20052;-64
2022/10/02 03:19:28;;;;;;;2.58;1.65;;;;;;;20.97;49.33;101221.44;5014571;28;20103;-64
2022/10/02 03:22:13;;;;;;;2.83;1.50;;;;;;;20.95;49.14;101237.53;5012270;28;20525;-64
2022/10/02 03:24:43;;;;;;;3.55;1.40;;;;;;;20.96;49.05;101235.69;5016585;28;20407;-66
2022/10/02 03:27:22;;;;;;;4.07;1.38;;;;;;;20.96;49.32;101239.16;5012778;28;20045;-64
2022/10/02 03:30:08;;;;;;;2.83;1.42;;;;;;;20.94;49.17;101245.63;5012926;28;20068;-64
2022/10/02 03:32:36;;;;;;;3.58;1.63;;;;;;;20.92;49.22;101248.47;5009485;28;20049;-64
2022/10/02 03:35:04;;;;;;;3.55;1.60;;;;;;;20.89;49.30;101246.19;5011936;28;20041;-64
2022/10/02 03:37:31;;;;;;;3.83;1.55;;;;;;;20.92;49.51;101245.00;5018185;28;20073;-64
2022/10/02 03:40:00;;;;;;;1.90;1.38;;;;;;;20.88;49.28;101236.59;5009771;28;20614;-64
2022/10/02 03:42:30;;;;;;;6.80;1.90;;;;;;;20.92;49.39;101237.88;5016947;28;20047;-64
2022/10/02 03:44:55;;;;;;;2.60;1.55;;;;;;;20.89;49.25;101232.94;5014216;28;21657;-64
2022/10/02 03:47:21;;;;;;;2.13;1.30;;;;;;;20.92;49.32;101229.13;5016046;28;20095;-64
2022/10/02 03:49:46;;;;;;;2.78;1.77;;;;;;;20.93;49.23;101228.94;5014232;28;20053;-64
2022/10/02 03:52:17;;;;;;;4.03;1.80;;;;;;;20.91;49.21;101232.75;5017426;28;20045;-64
2022/10/02 03:54:44;;;;;;;3.65;1.40;;;;;;;20.90;49.13;101234.59;5010796;28;20146;-64
2022/10/02 03:57:21;;;;;;;2.67;1.55;;;;;;;20.91;49.39;101230.13;5017058;28;20140;-65
2022/10/02 04:00:06;;;;;;;2.05;1.42;;;;;;;20.95;49.19;101236.69;5012210;28;20033;-64
2022/10/02 04:02:42;;;;;;;2.92;1.58;;;;;;;20.91;49.29;101233.59;5013969;28;20515;-64
2022/10/02 04:05:25;;;;;;;2.20;1.45;;;;;;;20.87;49.50;101250.81;5015514;28;20072;-65
2022/10/02 04:08:07;;;;;;;4.05;2.00;;;;;;;20.88;49.42;101252.47;5015331;28;20041;-65
2022/10/02 04:10:39;;;;;;;2.63;1.30;;;;;;;20.90;49.26;101254.94;5011728;28;20588;-65
2022/10/02 04:13:19;;;;;;;2.15;1.50;;;;;;;20.83;49.28;101243.41;5007678;28;20045;-65
2022/10/02 04:15:53;;;;;;;1.90;1.27;;;;;;;20.89;49.30;101248.81;5014110;28;20684;-64
2022/10/02 04:18:29;;;;;;;2.10;1.27;;;;;;;20.88;49.20;101246.34;5011636;28;20493;-65
2022/10/02 04:21:05;;;;;;;3.75;1.42;;;;;;;20.90;49.46;101257.59;5012005;28;20997;-65
2022/10/02 04:23:38;;;;;;;3.17;1.63;;;;;;;20.84;49.38;101255.66;5017034;28;20931;-65
2022/10/02 04:26:13;;;;;;;3.55;1.50;;;;;;;20.93;49.23;101255.41;5011743;28;20108;-65
2022/10/02 04:28:43;;;;;;;3.45;1.52;;;;;;;20.90;49.27;101247.81;5015719;28;20423;-64
2022/10/02 04:31:12;;;;;;;;;;;;;;;20.92;49.32;101255.59;5013640;28;20045;-65
2022/10/02 04:33:38;;;;;;;3.20;1.73;;;;;;;20.92;49.32;101261.69;5016130;28;19958;-65
2022/10/02 04:36:29;;;;;;;2.97;1.40;;;;;;;20.87;49.29;101264.06;5015609;28;20041;-65
2022/10/02 04:39:10;;;;;;;2.17;1.40;;;;;;;20.89;49.26;101266.53;5014561;28;20488;-65
2022/10/02 04:42:14;;;;;;;2.85;1.45;;;;;;;20.93;49.15;101268.63;5013297;28;20041;-65
2022/10/02 04:44:54;;;;;;;3.78;1.65;;;;;;;20.89;49.40;101269.19;5015082;28;20117;-65
2022/10/02 04:47:39;;;;;;;3.08;1.38;;;;;;;20.88;49.26;101265.72;5014767;28;20037;-64
2022/10/02 04:50:30;;;;;;;3.35;1.38;;;;;;;20.88;49.10;101276.28;5014580;28;20084;-65
2022/10/02 04:53:29;;;;;;;2.97;1.42;;;;;;;20.88;49.23;101278.13;5010986;28;20041;-65
2022/10/02 04:56:33;;;;;;;3.60;1.77;;;;;;;20.89;49.11;101280.59;5013253;28;20156;-65
2022/10/02 04:59:04;;;;;;;1.88;1.23;;;;;;;20.88;49.46;101289.53;5008015;28;20044;-65
2022/10/02 05:01:42;;;;;;;2.97;1.20;;;;;;;20.95;49.28;101294.94;5013497;28;20084;-65
2022/10/02 05:04:46;;;;;;;1.80;1.05;;;;;;;20.84;49.43;101290.06;5016084;28;20037;-65
2022/10/02 05:07:24;;;;;;;2.58;1.13;;;;;;;20.88;49.23;101299.28;5023303;28;20950;-65
2022/10/02 05:10:15;;;;;;;3.08;1.50;;;;;;;20.82;49.37;101298.16;5017764;28;20052;-65
2022/10/02 05:12:52;;;;;;;2.78;1.45;;;;;;;20.84;49.42;101301.47;5024225;28;20076;-65
2022/10/02 05:15:53;;;;;;;2.38;1.23;;;;;;;20.81;49.60;101305.28;5005364;28;20898;-65
2022/10/02 05:18:36;;;;;;;2.75;1.42;;;;;;;20.81;49.18;101302.63;5021392;28;20088;-65
2022/10/02 05:21:20;;;;;;;3.10;1.65;;;;;;;20.81;49.48;101299.97;5021104;28;20068;-65
2022/10/02 05:23:48;;;;;;;2.28;1.30;;;;;;;20.77;49.58;101301.34;5018689;28;20045;-65
2022/10/02 05:26:20;;;;;;;1.70;1.27;;;;;;;20.82;49.37;101303.44;5020848;28;20080;-65
2022/10/02 05:29:03;;;;;;;2.30;1.48;;;;;;;20.82;49.20;101306.09;5020974;28;20038;-65
2022/10/02 05:31:37;;;;;;;2.35;1.30;;;;;;;20.67;49.34;101284.03;5021300;28;20033;-65
2022/10/02 05:34:24;;;;;;;3.35;1.33;;;;;;;20.84;49.16;101304.13;5015537;28;20051;-65
2022/10/02 05:37:06;;;;;;;3.85;1.45;;;;;;;20.79;49.55;101307.28;5013197;28;20160;-65
2022/10/02 05:39:46;;;;;;;3.22;1.33;;;;;;;20.84;49.15;101312.06;5012113;28;20037;-64
2022/10/02 05:42:25;;;;;;;2.05;1.25;;;;;;;20.74;49.44;101314.91;5015114;28;20098;-65
2022/10/02 05:45:10;;;;;;;3.42;1.70;;;;;;;20.79;49.37;101311.75;5016241;28;20056;-64
2022/10/02 05:47:44;;;;;;;1.80;1.17;;;;;;;20.80;49.31;101308.91;5016475;28;20033;-65
2022/10/02 05:50:22;;;;;;;3.83;1.55;;;;;;;20.79;49.34;101314.38;5018189;28;20041;-65
2022/10/02 05:53:03;;;;;;;5.10;1.90;;;;;;;20.77;49.44;101324.31;5015707;28;20513;-65
2022/10/02 05:55:36;;;;;;;2.25;1.48;;;;;;;20.69;49.62;101316.44;5015026;28;20049;-65
2022/10/02 05:58:19;;;;;;;3.80;1.23;;;;;;;20.75;49.54;101326.31;5015966;28;20061;-65
2022/10/02 06:01:08;;;;;;;2.22;1.20;;;;;;;20.73;49.45;101331.78;5014697;28;20041;-65
2022/10/02 06:03:42;;;;;;;3.03;1.25;;;;;;;20.71;49.57;101330.31;5015754;28;20036;-64
2022/10/02 06:06:19;;;;;;;3.00;1.42;;;;;;;20.76;49.29;101343.84;5015147;28;20684;-65
2022/10/02 06:08:59;;;;;;;2.25;1.35;;;;;;;20.73;49.49;101347.69;5015885;28;20070;-65
2022/10/02 06:11:24;;;;;;;;;;;;;;;20.70;49.40;101358.63;5012080;28;20388;-65
2022/10/02 06:13:57;;;;;;;4.00;1.70;;;;;;;20.70;49.66;101358.63;4995815;28;19925;-65
2022/10/02 06:16:39;;;;;;;5.70;1.95;;;;;;;20.67;49.66;101355.50;5013575;28;20025;-65
2022/10/02 06:19:28;;;;;;;3.72;1.40;;;;;;;20.69;49.43;101358.78;5014443;28;20045;-65
2022/10/02 06:22:16;;;;;;;4.40;1.70;;;;;;;20.69;49.69;101361.44;5018200;28;20033;-65
2022/10/02 06:24:51;;;;;;;2.97;1.38;;;;;;;20.69;49.77;101361.44;5017441;28;20491;-65
2022/10/02 06:27:45;;;;;;;3.28;1.23;;;;;;;20.63;49.94;101365.56;5015050;28;20061;-65
2022/10/02 06:30:16;;;;;;;1.42;0.98;;;;;;;20.61;49.95;101372.03;5016905;28;20601;-65
2022/10/02 06:33:16;;;;;;;1.88;1.33;;;;;;;20.66;49.64;101372.38;5018572;28;21814;-64
2022/10/02 06:36:02;;;;;;;3.50;1.67;;;;;;;20.58;49.79;101378.50;5013753;28;20044;-64
2022/10/02 06:38:44;;;;;;;3.38;1.58;;;;;;;20.61;49.83;101375.50;4966232;28;20404;-64
2022/10/02 06:41:42;;;;;;;3.63;1.50;;;;;;;20.63;49.76;101383.28;4998372;28;20037;-64
2022/10/02 06:44:26;;;;;;;3.17;1.50;;;;;;;20.69;49.69;101385.25;5012568;28;20506;-65
2022/10/02 06:47:33;;;;;;;2.50;1.52;;;;;;;20.63;49.70;101393.84;5019577;28;20032;-64
2022/10/02 06:50:42;;;;;;;4.55;1.35;;;;;;;20.66;49.81;101402.31;5014206;28;20045;-64
2022/10/02 06:53:20;;;;;;;2.85;1.40;;;;;;;20.66;49.61;101388.25;5011396;28;20026;-64
2022/10/02 06:56:06;;;;;;;2.85;1.50;;;;;;;20.65;49.65;101405.94;4993433;28;20037;-65
2022/10/02 06:58:57;;;;;;;4.03;1.75;;;;;;;20.66;49.71;101404.94;4997683;28;20033;-65
2022/10/02 07:01:45;;;;;;;2.65;1.27;;;;;;;20.73;49.36;101415.66;5010711;28;20048;-66
2022/10/02 07:04:41;;;;;;;2.83;1.30;;;;;;;20.70;49.37;101406.25;5015437;28;20033;-65
2022/10/02 07:07:32;;;;;;;2.05;1.00;;;;;;;20.72;49.59;101409.53;4996035;28;20330;-65
2022/10/02 07:10:22;;;;;;;2.42;1.40;;;;;;;20.74;49.57;101419.97;5014524;28;20483;-65
2022/10/02 07:13:02;;;;;;;4.53;1.70;;;;;;;20.72;49.67;101422.78;5012638;28;20048;-65
2022/10/02 07:15:52;;;;;;;2.42;1.60;;;;;;;20.72;49.43;101425.44;5016509;28;20045;-65
2022/10/02 07:18:44;;;;;;;3.10;1.20;;;;;;;20.71;49.59;101428.25;5016852;28;20055;-65
2022/10/02 07:21:25;;;;;;;3.53;1.55;;;;;;;20.73;49.31;101437.66;5011968;28;20972;-65
2022/10/02 07:24:29;;;;;;;1.52;1.30;;;;;;;20.67;49.63;101434.88;5019378;28;20099;-65
2022/10/02 07:27:22;;;;;;;2.13;1.20;;;;;;;20.70;49.44;101440.66;5000877;28;20118;-65
2022/10/02 07:30:07;;;;;;;3.65;1.70;;;;;;;20.74;49.49;101446.44;5017223;28;20120;-65
2022/10/02 07:32:48;;;;;;;3.22;1.45;;;;;;;20.76;49.57;101442.59;5014018;28;20386;-65
2022/10/02 07:35:31;;;;;;;3.88;1.30;;;;;;;20.76;49.52;101441.78;4995481;28;20033;-65
2022/10/02 07:38:06;;;;;;;2.17;1.23;;;;;;;20.71;49.42;101442.31;5014135;28;20118;-65
2022/10/02 07:41:04;;;;;;;2.78;1.45;;;;;;;20.71;49.70;101458.19;5014572;28;20990;-65
2022/10/02 07:43:46;;;;;;;2.47;1.30;;;;;;;20.64;49.46;101457.19;5012034;28;20035;-65
2022/10/02 07:46:17;;;;;;;1.80;1.02;;;;;;;20.72;49.39;101465.13;5010641;28;21418;-65
2022/10/02 07:48:57;;;;;;;1.60;0.95;;;;;;;20.76;49.46;101470.91;5015410;28;20487;-65
2022/10/02 07:51:48;;;;;;;2.85;1.27;;;;;;;20.73;49.43;101471.25;5009517;28;20041;-65
2022/10/02 07:54:23;;;;;;;3.45;1.45;;;;;;;20.71;49.60;101479.34;5009356;28;20702;-66
2022/10/02 07:56:51;;;;;;;5.90;1.35;;;;;;;20.77;49.48;101481.31;5017562;28;20029;-66
2022/10/02 07:59:17;;;;;;;2.55;1.20;;;;;;;20.77;49.50;101485.78;5009864;28;20107;-66
2022/10/02 08:01:45;;;;;;;2.75;1.38;;;;;;;20.76;49.29;101486.78;4998894;28;20047;-66
2022/10/02 08:04:25;;;;;;;2.05;1.10;;;;;;;20.76;49.44;101500.00;5011508;28;20103;-66
2022/10/02 08:07:00;;;;;;;2.53;1.33;;;;;;;20.75;49.37;101509.78;5014972;28;20045;-66
2022/10/02 08:09:47;;;;;;;2.60;1.27;;;;;;;20.76;49.59;101513.25;5016133;28;20044;-65
2022/10/02 08:12:28;;;;;;;4.53;1.38;;;;;;;20.79;49.20;101504.97;5014139;28;20052;-66
2022/10/02 08:14:55;;;;;;;2.85;1.65;;;;;;;20.76;49.61;101513.25;5014778;28;20075;-65
2022/10/02 08:17:32;;;;;;;1.95;1.35;;;;;;;20.74;49.30;101518.72;5018512;28;20037;-65
2022/10/02 08:20:12;;;;;;;3.67;1.27;;;;;;;20.80;49.32;101522.50;5017576;28;20037;-65
2022/10/02 08:23:19;;;;;;;2.85;1.33;;;;;;;20.72;49.47;101520.69;5015587;28;20455;-65
2022/10/02 08:25:53;;;;;;;2.53;1.33;;;;;;;20.72;49.47;101531.28;5016498;28;20404;-66
2022/10/02 08:28:41;;;;;;;2.28;1.10;;;;;;;20.75;49.44;101530.94;5020253;28;20497;-66
2022/10/02 08:31:11;;;;;;;3.53;1.52;;;;;;;20.72;49.69;101533.13;5017910;28;20282;-65
2022/10/02 08:33:37;;;;;;;2.70;1.10;;;;;;;20.71;49.68;101547.34;5018365;28;20475;-66
2022/10/02 08:36:15;;;;;;;3.75;1.88;;;;;;;20.74;49.71;101552.28;5016812;28;20037;-65
2022/10/02 08:38:52;;;;;;;3.15;1.38;;;;;;;20.75;49.66;101553.94;5022052;28;20608;-65
2022/10/02 08:41:36;;;;;;;2.53;1.17;;;;;;;20.74;49.47;101560.22;5024872;28;20120;-65
2022/10/02 08:44:23;;;;;;;2.55;1.20;;;;;;;20.71;49.74;101565.88;5022507;28;20084;-65
2022/10/02 08:47:01;;;;;;;1.98;1.30;;;;;;;20.70;49.46;101546.53;5024722;28;20029;-65
2022/10/02 08:49:38;;;;;;;2.17;1.33;;;;;;;20.74;49.41;101541.72;5019780;28;20037;-64
2022/10/02 08:52:12;;;;;;;3.13;1.70;;;;;;;20.76;49.49;101539.72;5019803;28;20052;-64
2022/10/02 08:55:14;;;;;;;2.38;1.45;;;;;;;20.77;49.28;101544.00;5018885;28;20037;-64
2022/10/02 08:58:09;;;;;;;3.15;1.38;;;;;;;20.77;49.43;101549.31;5020863;28;20474;-64
2022/10/02 09:00:54;;;;;;;2.30;1.17;;;;;;;20.83;49.53;101551.31;5018269;28;20072;-64
2022/10/02 09:03:28;;;;;;;4.30;1.55;;;;;;;20.82;49.31;101554.91;5021513;28;20550;-64
2022/10/02 09:06:18;;;;;;;2.22;1.33;;;;;;;20.88;49.17;101559.56;5022933;28;20741;-64
2022/10/02 09:09:41;;;;;;;3.03;1.30;;;;;;;20.92;49.02;101565.31;5020122;28;20063;-63
2022/10/02 09:12:36;;;;;;;2.55;1.20;;;;;;;20.95;48.97;101573.75;4966373;28;20039;-64
2022/10/02 09:15:11;;;;;;;3.13;1.50;;;;;;;21.00;48.93;101568.78;4964343;28;20121;-64
2022/10/02 09:17:47;;;;;;;4.00;1.58;;;;;;;21.04;48.93;101575.41;5015599;28;20164;-64
2022/10/02 09:20:42;;;;;;;2.97;1.30;;;;;;;21.03;48.89;101572.94;5028243;28;20041;-64
2022/10/02 09:23:36;;;;;;;3.90;1.58;;;;;;;21.09;48.86;101580.19;5021901;28;20048;-63
2022/10/02 09:26:39;;;;;;;3.10;1.30;;;;;;;21.19;48.86;101583.47;4967729;28;21029;-65
2022/10/02 09:29:27;;;;;;;3.25;1.50;;;;;;;21.24;49.09;101583.81;5005931;28;20048;-65
2022/10/02 09:32:26;;;;;;;2.80;1.48;;;;;;;21.40;48.79;101581.09;5020875;28;20038;-66
2022/10/02 09:35:12;;;;;;;5.32;1.67;;;;;;;21.51;48.58;101574.59;5017989;28;20055;-64
2022/10/02 09:37:47;;;;;;;3.08;1.30;;;;;;;21.51;48.65;101576.41;5015656;28;20926;-64
2022/10/02 09:40:41;;;;;;;4.35;1.50;;;;;;;21.65;47.91;101557.97;5015948;28;20040;-65
2022/10/02 09:43:34;;;;;;;4.32;1.52;;;;;;;22.04;47.30;101578.25;4996595;28;20044;-69
2022/10/02 09:46:22;;;;;;;3.10;1.80;;;;;;;22.14;47.34;101576.25;4999813;28;20084;-69
2022/10/02 09:48:50;;;;;;;2.85;1.63;;;;;;;22.17;47.18;101578.53;5008920;28;20218;-69
2022/10/02 09:51:50;;;;;;;4.00;1.35;;;;;;;22.29;46.80;101581.63;5019505;28;20037;-70
2022/10/02 09:54:53;;;;;;;4.60;1.30;;;;;;;22.35;47.02;101588.84;5004349;28;21972;-65
2022/10/02 09:57:44;;;;;;;3.25;1.40;;;;;;;22.36;46.92;101595.00;5020389;28;20718;-68
2022/10/02 10:00:15;;;;;;;3.85;1.40;;;;;;;22.38;47.00;101590.31;5007299;28;20102;-69
2022/10/02 10:03:22;;;;;;;3.33;1.48;;;;;;;22.43;46.74;101587.94;5015370;28;21091;-69
2022/10/02 10:06:26;;;;;;;6.63;1.80;;;;;;;22.09;47.65;101583.91;5014415;28;20048;-67
2022/10/02 10:09:00;;;;;;;3.88;1.75;;;;;;;22.00;48.06;101595.53;5016522;28;20037;-68
2022/10/02 10:11:56;;;;;;;3.38;1.83;;;;;;;21.97;48.00;101590.59;4999967;28;20048;-68
2022/10/02 10:14:52;;;;;;;4.85;2.05;;;;;;;21.97;47.71;101593.25;5004456;28;20033;-67
2022/10/02 10:17:50;;;;;;;7.47;1.52;;;;;;;22.03;47.61;101597.84;5003067;28;20045;-70
2022/10/02 10:20:57;;;;;;;3.55;1.45;;;;;;;22.18;47.50;101598.75;4966246;28;20476;-69
2022/10/02 10:23:49;;;;;;;2.65;1.30;;;;;;;22.16;47.35;101613.22;5019664;28;20573;-69
2022/10/02 10:26:45;;;;;;;6.30;2.17;;;;;;;22.22;47.29;101613.31;5016639;28;20049;-69
2022/10/02 10:29:49;;;;;;;1.98;1.30;;;;;;;22.29;47.04;101616.94;4978933;28;20136;-69
2022/10/02 10:32:47;;;;;;;5.03;1.90;;;;;;;22.07;47.67;101616.91;5013933;28;20407;-66
2022/10/02 10:35:43;;;;;;;6.88;1.92;;;;;;;22.09;47.40;101621.06;5004835;28;20048;-69
2022/10/02 10:41:13;;;;;;;4.45;1.58;;;;;;;22.19;47.38;101626.13;5020721;28;20045;-71
2022/10/02 10:44:06;;;;;;;5.57;1.70;;;;;;;22.21;47.29;101627.59;5021236;28;20041;-69
2022/10/02 10:46:39;;;;;;;2.33;1.40;;;;;;;22.25;47.12;101631.53;5014090;28;20034;-69
2022/10/02 10:49:20;;;;;;;3.15;1.48;;;;;;;22.30;46.94;101636.34;5008403;28;20043;-69
2022/10/02 10:52:12;;;;;;;5.40;2.22;;;;;;;22.30;46.89;101637.16;5014799;28;20045;-69
2022/10/02 10:54:51;;;;;;;5.05;1.65;;;;;;;22.34;46.76;101639.44;5012220;28;20400;-69
2022/10/02 10:57:25;;;;;;;4.05;1.50;;;;;;;22.30;47.20;101638.97;5016130;28;20152;-69
2022/10/02 11:00:00;;;;;;;4.70;1.55;;;;;;;22.33;46.85;101643.94;5020383;28;20033;-69
2022/10/02 11:02:57;;;;;;;3.67;1.77;;;;;;;22.25;47.27;101642.16;5016213;28;20040;-69
2022/10/02 11:05:42;;;;;;;6.22;1.98;;;;;;;22.24;47.10;101648.44;4967608;28;20053;-70
2022/10/02 11:08:35;;;;;;;3.65;1.55;;;;;;;22.28;46.83;101649.78;5016870;28;20042;-69
2022/10/02 11:11:26;;;;;;;3.67;1.50;;;;;;;22.31;47.13;101649.41;5016140;28;20128;-69
2022/10/02 11:14:13;;;;;;;4.05;1.55;;;;;;;22.34;46.75;101642.94;5014717;28;20144;-69
2022/10/02 11:17:06;;;;;;;2.97;1.70;;;;;;;22.28;47.25;101655.09;5009988;28;20033;-68
2022/10/02 11:19:40;;;;;;;3.40;1.60;;;;;;;22.28;46.84;101664.88;4995997;28;20133;-69
2022/10/02 11:22:23;;;;;;;4.88;1.65;;;;;;;22.22;47.25;101661.06;5016773;28;20486;-68
2022/10/02 11:25:14;;;;;;;4.22;1.70;;;;;;;22.26;47.15;101654.44;4997443;28;20594;-68
2022/10/02 11:28:03;;;;;;;6.10;2.13;;;;;;;22.26;47.18;101659.75;5015156;28;20426;-68
2022/10/02 11:30:41;;;;;;;3.08;1.77;;;;;;;22.25;47.16;101667.84;5011612;28;20084;-67
2022/10/02 11:33:32;;;;;;;3.60;1.88;;;;;;;22.24;46.78;101669.69;5011890;28;20757;-67
2022/10/02 11:36:03;;;;;;;4.60;1.45;;;;;;;22.25;47.19;101678.47;4997003;28;20045;-66
2022/10/02 11:38:48;;;;;;;2.90;1.67;;;;;;;22.23;46.91;101677.81;5007206;28;20083;-67
2022/10/02 11:41:46;;;;;;;3.20;1.90;;;;;;;22.28;47.05;101678.97;5014631;28;20038;-70
2022/10/02 11:44:24;;;;;;;5.70;1.70;;;;;;;22.24;47.12;101679.47;5006511;28;20025;-69
2022/10/02 11:46:56;;;;;;;3.85;1.35;;;;;;;22.23;47.26;101681.28;5011351;28;20045;-68
2022/10/02 11:49:36;;;;;;;4.13;1.65;;;;;;;22.33;47.07;101683.75;5022667;28;20037;-67
2022/10/02 11:52:38;;;;;;;4.70;1.75;;;;;;;22.44;46.85;101688.66;5004126;28;20499;-69
2022/10/02 11:55:12;;;;;;;3.75;1.33;;;;;;;22.40;46.80;101694.47;5021643;28;20278;-71
2022/10/02 11:57:56;;;;;;;2.33;1.40;;;;;;;22.45;46.79;101681.50;5017765;28;20044;-69
2022/10/02 12:00:44;;;;;;;4.55;1.88;;;;;;;22.37;47.08;101681.56;5019878;28;20029;-67
2022/10/02 12:03:45;;;;;;;6.43;1.98;;;;;;;22.34;46.85;101685.38;5010937;28;20051;-67
2022/10/02 12:06:32;;;;;;;4.57;1.80;;;;;;;22.32;46.96;101684.75;5008178;28;20494;-67
2022/10/02 12:09:15;;;;;;;4.63;1.80;;;;;;;22.28;47.44;101699.38;5015330;28;20464;-69
2022/10/02 12:11:46;;;;;;;3.95;1.55;;;;;;;22.30;47.26;101700.84;5017337;28;20041;-69
2022/10/02 12:14:41;;;;;;;5.20;1.40;;;;;;;22.31;47.12;101699.00;5017970;28;20038;-70
2022/10/02 12:17:09;;;;;;;5.97;1.90;;;;;;;22.35;46.98;101705.63;5017343;28;20033;-70
2022/10/02 12:28:55;;;;;;;2.92;1.25;;;;;;;22.40;46.77;101719.16;5006274;28;20463;-70
2022/10/02 12:31:30;;;;;;;5.13;1.90;;;;;;;22.35;46.71;101713.56;5011550;28;20034;-68
2022/10/02 12:34:02;;;;;;;5.97;2.28;;;;;;;22.27;46.93;101719.75;5009548;28;20577;-71
2022/10/02 12:37:05;;;;;;;4.00;1.92;;;;;;;22.30;47.21;101723.88;4996361;28;20451;-69
2022/10/02 12:40:05;;;;;;;4.65;1.75;;;;;;;22.31;47.37;101736.16;5003516;28;20045;-69
2022/10/02 12:42:56;;;;;;;4.80;1.67;;;;;;;22.39;46.75;101744.06;5005038;28;20045;-69
2022/10/02 12:45:27;;;;;;;5.57;1.73;;;;;;;22.40;47.00;101740.41;4998966;28;20025;-69
2022/10/02 12:48:01;;;;;;;6.10;1.92;;;;;;;22.40;46.98;101743.06;5002693;28;20225;-70
2022/10/02 12:50:50;;;;;;;4.60;1.88;;;;;;;22.36;47.01;101746.25;5007151;28;20168;-69